sensor_id;sensor_type;location;lat;lon;timestamp;temperature;humidity
9223;DHT22;7557;51.698;3.942;2023-03-01T00:00:20;3.60;99.90
9223;DHT22;7557;51.698;3.942;2023-03-01T00:02:47;3.60;99.90
9223;DHT22;7557;51.698;3.942;2023-03-01T00:05:14;3.50;99.90
9223;DHT22;7557;51.698;3.942;2023-03-01T00:07:41;3.30;99.90
9223;DHT22;7557;51.698;3.942;2023-03-01T00:10:11;3.30;99.90
9223;DHT22;7557;51.698;3.942;2023-03-01T00:12:38;3.20;99.90
9223;DHT22;7557;51.698;3.942;2023-03-01T00:15:06;3.20;99.90
9223;DHT22;7557;51.698;3.942;2023-03-01T00:17:33;3.20;99.90
9223;DHT22;7557;51.698;3.942;2023-03-01T00:20:00;3.20;99.90
9223;DHT22;7557;51.698;3.942;2023-03-01T00:22:28;3.20;99.90
9223;DHT22;7557;51.698;3.942;2023-03-01T00:24:55;3.10;99.90
9223;DHT22;7557;51.698;3.942;2023-03-01T00:27:23;3.10;99.90
9223;DHT22;7557;51.698;3.942;2023-03-01T00:29:52;3.10;99.90
9223;DHT22;7557;51.698;3.942;2023-03-01T00:32:19;3.10;99.90
9223;DHT22;7557;51.698;3.942;2023-03-01T00:34:46;3.10;99.90
9223;DHT22;7557;51.698;3.942;2023-03-01T00:37:19;3.10;99.90
9223;DHT22;7557;51.698;3.942;2023-03-01T00:39:47;3.10;99.90
9223;DHT22;7557;51.698;3.942;2023-03-01T00:42:14;3.10;99.90
9223;DHT22;7557;51.698;3.942;2023-03-01T00:44:43;3.10;99.90
9223;DHT22;7557;51.698;3.942;2023-03-01T00:47:10;3.00;99.90
9223;DHT22;7557;51.698;3.942;2023-03-01T00:52:59;3.10;99.90
9223;DHT22;7557;51.698;3.942;2023-03-01T00:55:26;3.00;99.90
9223;DHT22;7557;51.698;3.942;2023-03-01T00:57:53;3.00;99.90
9223;DHT22;7557;51.698;3.942;2023-03-01T01:00:22;3.00;99.90
9223;DHT22;7557;51.698;3.942;2023-03-01T01:02:49;3.00;99.90
9223;DHT22;7557;51.698;3.942;2023-03-01T01:05:18;3.00;99.90
9223;DHT22;7557;51.698;3.942;2023-03-01T01:07:47;3.00;99.90
9223;DHT22;7557;51.698;3.942;2023-03-01T01:10:15;3.00;99.90
9223;DHT22;7557;51.698;3.942;2023-03-01T01:12:46;3.10;99.90
9223;DHT22;7557;51.698;3.942;2023-03-01T01:15:13;3.10;99.90
9223;DHT22;7557;51.698;3.942;2023-03-01T01:17:43;3.10;99.90
9223;DHT22;7557;51.698;3.942;2023-03-01T01:20:11;3.20;99.90
9223;DHT22;7557;51.698;3.942;2023-03-01T01:22:38;3.20;99.90
9223;DHT22;7557;51.698;3.942;2023-03-01T01:25:06;3.20;99.90
9223;DHT22;7557;51.698;3.942;2023-03-01T01:27:33;3.20;99.90
9223;DHT22;7557;51.698;3.942;2023-03-01T01:30:00;3.20;99.90
9223;DHT22;7557;51.698;3.942;2023-03-01T01:32:27;3.20;99.90
9223;DHT22;7557;51.698;3.942;2023-03-01T01:34:56;3.20;99.90
9223;DHT22;7557;51.698;3.942;2023-03-01T01:37:23;3.20;99.90
9223;DHT22;7557;51.698;3.942;2023-03-01T01:39:57;3.20;99.90
9223;DHT22;7557;51.698;3.942;2023-03-01T01:42:24;3.20;99.90
9223;DHT22;7557;51.698;3.942;2023-03-01T01:47:51;3.00;99.90
9223;DHT22;7557;51.698;3.942;2023-03-01T01:50:21;3.00;99.90
9223;DHT22;7557;51.698;3.942;2023-03-01T01:52:50;3.00;99.90
9223;DHT22;7557;51.698;3.942;2023-03-01T01:55:20;3.00;99.90
9223;DHT22;7557;51.698;3.942;2023-03-01T01:57:50;3.10;99.90
9223;DHT22;7557;51.698;3.942;2023-03-01T02:00:20;3.10;99.90
9223;DHT22;7557;51.698;3.942;2023-03-01T02:02:50;3.10;99.90
9223;DHT22;7557;51.698;3.942;2023-03-01T02:05:25;3.10;99.90
9223;DHT22;7557;51.698;3.942;2023-03-01T02:07:53;3.00;99.90
9223;DHT22;7557;51.698;3.942;2023-03-01T02:10:21;3.00;99.90
9223;DHT22;7557;51.698;3.942;2023-03-01T02:12:49;3.00;99.90
9223;DHT22;7557;51.698;3.942;2023-03-01T02:15:17;3.00;99.90
9223;DHT22;7557;51.698;3.942;2023-03-01T02:17:45;3.00;99.90
9223;DHT22;7557;51.698;3.942;2023-03-01T02:20:25;3.00;99.90
9223;DHT22;7557;51.698;3.942;2023-03-01T02:22:54;3.00;99.90
9223;DHT22;7557;51.698;3.942;2023-03-01T02:25:31;3.00;99.90
9223;DHT22;7557;51.698;3.942;2023-03-01T02:28:05;3.00;99.90
9223;DHT22;7557;51.698;3.942;2023-03-01T02:30:35;2.90;99.90
9223;DHT22;7557;51.698;3.942;2023-03-01T02:33:03;2.90;99.90
9223;DHT22;7557;51.698;3.942;2023-03-01T02:35:32;2.80;99.90
9223;DHT22;7557;51.698;3.942;2023-03-01T02:38:01;2.80;99.90
9223;DHT22;7557;51.698;3.942;2023-03-01T02:40:29;2.80;99.90
9223;DHT22;7557;51.698;3.942;2023-03-01T02:42:58;2.80;99.90
9223;DHT22;7557;51.698;3.942;2023-03-01T02:45:26;2.80;99.90
9223;DHT22;7557;51.698;3.942;2023-03-01T02:47:56;2.80;99.90
9223;DHT22;7557;51.698;3.942;2023-03-01T02:50:43;2.70;99.90
9223;DHT22;7557;51.698;3.942;2023-03-01T02:53:16;2.70;99.90
9223;DHT22;7557;51.698;3.942;2023-03-01T02:55:46;2.70;99.90
9223;DHT22;7557;51.698;3.942;2023-03-01T02:58:14;2.70;99.90
9223;DHT22;7557;51.698;3.942;2023-03-01T03:00:42;2.70;99.90
9223;DHT22;7557;51.698;3.942;2023-03-01T03:03:13;2.70;99.90
9223;DHT22;7557;51.698;3.942;2023-03-01T03:05:41;2.70;99.90
9223;DHT22;7557;51.698;3.942;2023-03-01T03:08:07;2.70;99.90
9223;DHT22;7557;51.698;3.942;2023-03-01T03:10:37;2.70;99.90
9223;DHT22;7557;51.698;3.942;2023-03-01T03:13:06;2.80;99.90
9223;DHT22;7557;51.698;3.942;2023-03-01T03:15:34;2.90;99.90
9223;DHT22;7557;51.698;3.942;2023-03-01T03:18:04;2.90;99.90
9223;DHT22;7557;51.698;3.942;2023-03-01T03:20:33;3.00;99.90
9223;DHT22;7557;51.698;3.942;2023-03-01T03:23:00;3.00;99.90
9223;DHT22;7557;51.698;3.942;2023-03-01T03:25:28;3.00;99.90
9223;DHT22;7557;51.698;3.942;2023-03-01T03:27:57;3.00;99.90
9223;DHT22;7557;51.698;3.942;2023-03-01T03:30:26;2.90;99.90
9223;DHT22;7557;51.698;3.942;2023-03-01T03:32:53;2.90;99.90
9223;DHT22;7557;51.698;3.942;2023-03-01T03:35:22;2.80;99.90
9223;DHT22;7557;51.698;3.942;2023-03-01T03:37:52;2.70;99.90
9223;DHT22;7557;51.698;3.942;2023-03-01T03:40:29;2.70;99.90
9223;DHT22;7557;51.698;3.942;2023-03-01T03:42:57;2.80;99.90
9223;DHT22;7557;51.698;3.942;2023-03-01T03:45:24;2.90;99.90
9223;DHT22;7557;51.698;3.942;2023-03-01T03:47:51;2.90;99.90
9223;DHT22;7557;51.698;3.942;2023-03-01T03:50:19;3.00;99.90
9223;DHT22;7557;51.698;3.942;2023-03-01T03:52:46;3.00;99.90
9223;DHT22;7557;51.698;3.942;2023-03-01T03:55:14;3.00;99.90
9223;DHT22;7557;51.698;3.942;2023-03-01T03:57:46;3.00;99.90
9223;DHT22;7557;51.698;3.942;2023-03-01T04:00:18;3.00;99.90
9223;DHT22;7557;51.698;3.942;2023-03-01T04:02:47;3.00;99.90
9223;DHT22;7557;51.698;3.942;2023-03-01T04:05:16;3.00;99.90
9223;DHT22;7557;51.698;3.942;2023-03-01T04:07:44;2.90;99.90
9223;DHT22;7557;51.698;3.942;2023-03-01T04:10:15;2.80;99.90
9223;DHT22;7557;51.698;3.942;2023-03-01T04:12:42;2.80;99.90
9223;DHT22;7557;51.698;3.942;2023-03-01T04:15:11;2.80;99.90
9223;DHT22;7557;51.698;3.942;2023-03-01T04:17:41;2.90;99.90
9223;DHT22;7557;51.698;3.942;2023-03-01T04:20:10;2.90;99.90
9223;DHT22;7557;51.698;3.942;2023-03-01T04:22:38;3.00;99.90
9223;DHT22;7557;51.698;3.942;2023-03-01T04:25:06;3.00;99.90
9223;DHT22;7557;51.698;3.942;2023-03-01T04:27:35;2.90;99.90
9223;DHT22;7557;51.698;3.942;2023-03-01T04:30:04;2.90;99.90
9223;DHT22;7557;51.698;3.942;2023-03-01T04:32:31;3.00;99.90
9223;DHT22;7557;51.698;3.942;2023-03-01T04:34:58;3.00;99.90
9223;DHT22;7557;51.698;3.942;2023-03-01T04:37:25;3.10;99.90
9223;DHT22;7557;51.698;3.942;2023-03-01T04:39:52;3.10;99.90
9223;DHT22;7557;51.698;3.942;2023-03-01T04:42:20;3.10;99.90
9223;DHT22;7557;51.698;3.942;2023-03-01T04:44:48;3.00;99.90
9223;DHT22;7557;51.698;3.942;2023-03-01T04:47:16;2.90;99.90
9223;DHT22;7557;51.698;3.942;2023-03-01T04:49:43;2.80;99.90
9223;DHT22;7557;51.698;3.942;2023-03-01T04:52:10;2.80;99.90
9223;DHT22;7557;51.698;3.942;2023-03-01T04:54:37;2.80;99.90
9223;DHT22;7557;51.698;3.942;2023-03-01T04:57:05;2.80;99.90
9223;DHT22;7557;51.698;3.942;2023-03-01T04:59:32;2.90;99.90
9223;DHT22;7557;51.698;3.942;2023-03-01T05:02:00;2.90;99.90
9223;DHT22;7557;51.698;3.942;2023-03-01T05:04:27;3.00;99.90
9223;DHT22;7557;51.698;3.942;2023-03-01T05:06:54;3.00;99.90
9223;DHT22;7557;51.698;3.942;2023-03-01T05:09:24;3.10;99.90
9223;DHT22;7557;51.698;3.942;2023-03-01T05:11:51;3.10;99.90
9223;DHT22;7557;51.698;3.942;2023-03-01T05:14:18;3.20;99.90
9223;DHT22;7557;51.698;3.942;2023-03-01T05:16:45;3.10;99.90
9223;DHT22;7557;51.698;3.942;2023-03-01T05:19:13;3.10;99.90
9223;DHT22;7557;51.698;3.942;2023-03-01T05:21:42;3.20;99.90
9223;DHT22;7557;51.698;3.942;2023-03-01T05:24:23;3.10;99.90
9223;DHT22;7557;51.698;3.942;2023-03-01T05:26:50;3.10;99.90
9223;DHT22;7557;51.698;3.942;2023-03-01T05:29:19;3.10;99.90
9223;DHT22;7557;51.698;3.942;2023-03-01T05:31:51;3.20;99.90
9223;DHT22;7557;51.698;3.942;2023-03-01T05:34:23;3.10;99.90
9223;DHT22;7557;51.698;3.942;2023-03-01T05:36:51;3.20;99.90
9223;DHT22;7557;51.698;3.942;2023-03-01T05:39:19;3.10;99.90
9223;DHT22;7557;51.698;3.942;2023-03-01T05:41:48;3.10;99.90
9223;DHT22;7557;51.698;3.942;2023-03-01T05:44:15;3.00;99.90
9223;DHT22;7557;51.698;3.942;2023-03-01T05:46:42;2.90;99.90
9223;DHT22;7557;51.698;3.942;2023-03-01T05:49:10;2.80;99.90
9223;DHT22;7557;51.698;3.942;2023-03-01T05:51:40;2.70;99.90
9223;DHT22;7557;51.698;3.942;2023-03-01T05:54:07;2.70;99.90
9223;DHT22;7557;51.698;3.942;2023-03-01T05:56:34;2.70;99.90
9223;DHT22;7557;51.698;3.942;2023-03-01T05:59:02;2.60;99.90
9223;DHT22;7557;51.698;3.942;2023-03-01T06:01:30;2.70;99.90
9223;DHT22;7557;51.698;3.942;2023-03-01T06:03:57;2.70;99.90
9223;DHT22;7557;51.698;3.942;2023-03-01T06:06:24;2.70;99.90
9223;DHT22;7557;51.698;3.942;2023-03-01T06:08:53;2.70;99.90
9223;DHT22;7557;51.698;3.942;2023-03-01T06:11:21;2.80;99.90
9223;DHT22;7557;51.698;3.942;2023-03-01T06:13:48;2.90;99.90
9223;DHT22;7557;51.698;3.942;2023-03-01T06:16:15;3.00;99.90
9223;DHT22;7557;51.698;3.942;2023-03-01T06:18:42;3.10;99.90
9223;DHT22;7557;51.698;3.942;2023-03-01T06:21:09;3.00;99.90
9223;DHT22;7557;51.698;3.942;2023-03-01T06:23:36;3.00;99.90
9223;DHT22;7557;51.698;3.942;2023-03-01T06:26:07;3.00;99.90
9223;DHT22;7557;51.698;3.942;2023-03-01T06:28:35;3.00;99.90
9223;DHT22;7557;51.698;3.942;2023-03-01T06:31:02;3.00;99.90
9223;DHT22;7557;51.698;3.942;2023-03-01T06:33:29;3.00;99.90
9223;DHT22;7557;51.698;3.942;2023-03-01T06:35:56;2.80;99.90
9223;DHT22;7557;51.698;3.942;2023-03-01T06:38:24;2.70;99.90
9223;DHT22;7557;51.698;3.942;2023-03-01T06:40:54;2.70;99.90
9223;DHT22;7557;51.698;3.942;2023-03-01T06:43:23;2.60;99.90
9223;DHT22;7557;51.698;3.942;2023-03-01T06:45:51;2.60;99.90
9223;DHT22;7557;51.698;3.942;2023-03-01T06:48:18;2.50;99.90
9223;DHT22;7557;51.698;3.942;2023-03-01T06:50:45;2.50;99.90
9223;DHT22;7557;51.698;3.942;2023-03-01T06:53:12;2.50;99.90
9223;DHT22;7557;51.698;3.942;2023-03-01T06:55:39;2.50;99.90
9223;DHT22;7557;51.698;3.942;2023-03-01T06:58:06;2.50;99.90
9223;DHT22;7557;51.698;3.942;2023-03-01T07:00:34;2.40;99.90
9223;DHT22;7557;51.698;3.942;2023-03-01T07:03:01;2.40;99.90
9223;DHT22;7557;51.698;3.942;2023-03-01T07:05:29;2.40;99.90
9223;DHT22;7557;51.698;3.942;2023-03-01T07:07:56;2.40;99.90
9223;DHT22;7557;51.698;3.942;2023-03-01T07:10:24;2.50;99.90
9223;DHT22;7557;51.698;3.942;2023-03-01T07:12:54;2.50;99.90
9223;DHT22;7557;51.698;3.942;2023-03-01T07:15:21;2.50;99.90
9223;DHT22;7557;51.698;3.942;2023-03-01T07:17:50;2.60;99.90
9223;DHT22;7557;51.698;3.942;2023-03-01T07:20:17;2.70;99.90
9223;DHT22;7557;51.698;3.942;2023-03-01T07:22:44;2.70;99.90
9223;DHT22;7557;51.698;3.942;2023-03-01T07:25:12;2.80;99.90
9223;DHT22;7557;51.698;3.942;2023-03-01T07:27:39;2.90;99.90
9223;DHT22;7557;51.698;3.942;2023-03-01T07:30:07;3.00;99.90
9223;DHT22;7557;51.698;3.942;2023-03-01T07:32:34;3.10;99.90
9223;DHT22;7557;51.698;3.942;2023-03-01T07:35:03;3.10;99.90
9223;DHT22;7557;51.698;3.942;2023-03-01T07:37:30;3.10;99.90
9223;DHT22;7557;51.698;3.942;2023-03-01T07:39:57;3.10;99.90
9223;DHT22;7557;51.698;3.942;2023-03-01T07:42:24;3.10;99.90
9223;DHT22;7557;51.698;3.942;2023-03-01T07:44:51;3.20;99.90
9223;DHT22;7557;51.698;3.942;2023-03-01T07:47:18;3.20;99.90
9223;DHT22;7557;51.698;3.942;2023-03-01T07:49:45;3.20;99.90
9223;DHT22;7557;51.698;3.942;2023-03-01T07:52:14;3.30;99.90
9223;DHT22;7557;51.698;3.942;2023-03-01T07:54:43;3.30;99.90
9223;DHT22;7557;51.698;3.942;2023-03-01T07:57:11;3.30;99.90
9223;DHT22;7557;51.698;3.942;2023-03-01T07:59:38;3.30;99.90
9223;DHT22;7557;51.698;3.942;2023-03-01T08:02:05;3.30;99.90
9223;DHT22;7557;51.698;3.942;2023-03-01T08:04:32;3.30;99.90
9223;DHT22;7557;51.698;3.942;2023-03-01T08:07:00;3.40;99.90
9223;DHT22;7557;51.698;3.942;2023-03-01T08:09:28;3.40;99.90
9223;DHT22;7557;51.698;3.942;2023-03-01T08:11:56;3.50;99.90
9223;DHT22;7557;51.698;3.942;2023-03-01T08:14:24;3.50;99.90
9223;DHT22;7557;51.698;3.942;2023-03-01T08:16:52;3.60;99.90
9223;DHT22;7557;51.698;3.942;2023-03-01T08:19:19;3.60;99.90
9223;DHT22;7557;51.698;3.942;2023-03-01T08:21:46;3.70;99.90
9223;DHT22;7557;51.698;3.942;2023-03-01T08:24:13;3.70;99.90
9223;DHT22;7557;51.698;3.942;2023-03-01T08:26:41;3.70;99.90
9223;DHT22;7557;51.698;3.942;2023-03-01T08:29:09;3.80;99.90
9223;DHT22;7557;51.698;3.942;2023-03-01T08:31:38;3.80;99.90
9223;DHT22;7557;51.698;3.942;2023-03-01T08:34:07;3.80;99.90
9223;DHT22;7557;51.698;3.942;2023-03-01T08:36:37;3.90;99.90
9223;DHT22;7557;51.698;3.942;2023-03-01T08:39:04;3.90;99.90
9223;DHT22;7557;51.698;3.942;2023-03-01T08:41:31;4.00;99.90
9223;DHT22;7557;51.698;3.942;2023-03-01T08:44:00;4.10;99.90
9223;DHT22;7557;51.698;3.942;2023-03-01T08:46:28;4.20;99.90
9223;DHT22;7557;51.698;3.942;2023-03-01T08:48:56;4.30;99.90
9223;DHT22;7557;51.698;3.942;2023-03-01T08:51:24;4.40;99.90
9223;DHT22;7557;51.698;3.942;2023-03-01T08:53:52;4.50;99.90
9223;DHT22;7557;51.698;3.942;2023-03-01T08:56:19;4.60;99.90
9223;DHT22;7557;51.698;3.942;2023-03-01T08:58:47;4.80;99.90
9223;DHT22;7557;51.698;3.942;2023-03-01T09:01:17;4.90;99.90
9223;DHT22;7557;51.698;3.942;2023-03-01T09:03:45;5.00;99.90
9223;DHT22;7557;51.698;3.942;2023-03-01T09:06:12;5.00;99.90
9223;DHT22;7557;51.698;3.942;2023-03-01T09:08:41;5.10;99.90
9223;DHT22;7557;51.698;3.942;2023-03-01T09:11:11;5.20;99.90
9223;DHT22;7557;51.698;3.942;2023-03-01T09:13:39;5.30;99.90
9223;DHT22;7557;51.698;3.942;2023-03-01T09:16:07;5.40;99.90
9223;DHT22;7557;51.698;3.942;2023-03-01T09:18:36;5.50;99.90
9223;DHT22;7557;51.698;3.942;2023-03-01T09:21:04;5.50;99.90
9223;DHT22;7557;51.698;3.942;2023-03-01T09:23:34;5.60;99.90
9223;DHT22;7557;51.698;3.942;2023-03-01T09:26:01;5.70;99.90
9223;DHT22;7557;51.698;3.942;2023-03-01T09:28:28;5.80;99.90
9223;DHT22;7557;51.698;3.942;2023-03-01T09:30:58;5.90;99.90
9223;DHT22;7557;51.698;3.942;2023-03-01T09:33:26;5.90;99.90
9223;DHT22;7557;51.698;3.942;2023-03-01T09:35:57;5.80;99.90
9223;DHT22;7557;51.698;3.942;2023-03-01T09:38:25;5.70;99.90
9223;DHT22;7557;51.698;3.942;2023-03-01T09:40:53;5.60;99.90
9223;DHT22;7557;51.698;3.942;2023-03-01T09:43:25;5.60;99.90
9223;DHT22;7557;51.698;3.942;2023-03-01T09:45:55;5.70;99.90
9223;DHT22;7557;51.698;3.942;2023-03-01T09:48:26;5.80;99.90
9223;DHT22;7557;51.698;3.942;2023-03-01T09:50:58;5.90;99.90
9223;DHT22;7557;51.698;3.942;2023-03-01T09:53:32;6.00;99.90
9223;DHT22;7557;51.698;3.942;2023-03-01T09:56:03;6.00;99.90
9223;DHT22;7557;51.698;3.942;2023-03-01T09:58:37;6.10;99.90
9223;DHT22;7557;51.698;3.942;2023-03-01T10:01:21;6.30;99.90
9223;DHT22;7557;51.698;3.942;2023-03-01T10:06:55;6.20;99.90
9223;DHT22;7557;51.698;3.942;2023-03-01T10:09:33;6.30;99.90
9223;DHT22;7557;51.698;3.942;2023-03-01T10:12:02;6.40;99.90
9223;DHT22;7557;51.698;3.942;2023-03-01T10:14:34;6.50;99.90
9223;DHT22;7557;51.698;3.942;2023-03-01T10:17:04;6.60;99.90
9223;DHT22;7557;51.698;3.942;2023-03-01T10:19:40;6.70;99.90
9223;DHT22;7557;51.698;3.942;2023-03-01T10:22:15;6.80;99.90
9223;DHT22;7557;51.698;3.942;2023-03-01T10:24:43;6.90;99.90
9223;DHT22;7557;51.698;3.942;2023-03-01T10:27:17;7.00;99.90
9223;DHT22;7557;51.698;3.942;2023-03-01T10:29:49;7.10;99.90
9223;DHT22;7557;51.698;3.942;2023-03-01T10:32:18;7.20;99.90
9223;DHT22;7557;51.698;3.942;2023-03-01T10:34:47;7.20;99.90
9223;DHT22;7557;51.698;3.942;2023-03-01T10:37:17;7.30;99.90
9223;DHT22;7557;51.698;3.942;2023-03-01T10:39:57;7.40;99.90
9223;DHT22;7557;51.698;3.942;2023-03-01T10:42:29;7.50;99.90
9223;DHT22;7557;51.698;3.942;2023-03-01T10:44:57;7.50;99.90
9223;DHT22;7557;51.698;3.942;2023-03-01T10:47:26;7.40;99.90
9223;DHT22;7557;51.698;3.942;2023-03-01T10:50:04;7.30;99.90
9223;DHT22;7557;51.698;3.942;2023-03-01T10:52:35;7.40;99.90
9223;DHT22;7557;51.698;3.942;2023-03-01T10:55:08;7.50;99.90
9223;DHT22;7557;51.698;3.942;2023-03-01T10:57:50;7.60;99.90
9223;DHT22;7557;51.698;3.942;2023-03-01T11:00:23;7.70;99.90
9223;DHT22;7557;51.698;3.942;2023-03-01T11:03:02;7.70;99.90
9223;DHT22;7557;51.698;3.942;2023-03-01T11:05:30;7.80;99.90
9223;DHT22;7557;51.698;3.942;2023-03-01T11:08:02;7.90;99.90
9223;DHT22;7557;51.698;3.942;2023-03-01T11:10:32;8.00;99.90
9223;DHT22;7557;51.698;3.942;2023-03-01T11:13:07;8.00;99.90
9223;DHT22;7557;51.698;3.942;2023-03-01T11:15:35;8.00;99.90
9223;DHT22;7557;51.698;3.942;2023-03-01T11:18:02;8.00;99.90
9223;DHT22;7557;51.698;3.942;2023-03-01T11:20:32;8.00;99.80
9223;DHT22;7557;51.698;3.942;2023-03-01T11:23:04;8.00;99.40
9223;DHT22;7557;51.698;3.942;2023-03-01T11:25:35;8.00;99.40
9223;DHT22;7557;51.698;3.942;2023-03-01T11:28:05;8.00;99.50
9223;DHT22;7557;51.698;3.942;2023-03-01T11:30:36;8.00;99.30
9223;DHT22;7557;51.698;3.942;2023-03-01T11:33:15;8.00;98.90
9223;DHT22;7557;51.698;3.942;2023-03-01T11:35:49;8.00;99.20
9223;DHT22;7557;51.698;3.942;2023-03-01T11:38:22;8.10;98.80
9223;DHT22;7557;51.698;3.942;2023-03-01T11:40:54;8.10;98.90
9223;DHT22;7557;51.698;3.942;2023-03-01T11:43:31;8.10;99.00
9223;DHT22;7557;51.698;3.942;2023-03-01T11:46:31;8.20;99.20
9223;DHT22;7557;51.698;3.942;2023-03-01T11:49:10;8.30;99.20
9223;DHT22;7557;51.698;3.942;2023-03-01T11:51:51;8.30;99.00
9223;DHT22;7557;51.698;3.942;2023-03-01T11:54:33;8.30;98.80
9223;DHT22;7557;51.698;3.942;2023-03-01T11:57:09;8.30;99.40
9223;DHT22;7557;51.698;3.942;2023-03-01T12:00:02;8.30;98.70
9223;DHT22;7557;51.698;3.942;2023-03-01T12:02:59;8.20;98.40
9223;DHT22;7557;51.698;3.942;2023-03-01T12:05:51;8.20;98.70
9223;DHT22;7557;51.698;3.942;2023-03-01T12:08:28;8.10;98.30
9223;DHT22;7557;51.698;3.942;2023-03-01T12:11:03;8.00;98.80
9223;DHT22;7557;51.698;3.942;2023-03-01T12:13:49;8.10;98.90
9223;DHT22;7557;51.698;3.942;2023-03-01T12:16:26;8.20;99.50
9223;DHT22;7557;51.698;3.942;2023-03-01T12:19:15;8.30;99.00
9223;DHT22;7557;51.698;3.942;2023-03-01T12:21:56;8.40;98.50
9223;DHT22;7557;51.698;3.942;2023-03-01T12:27:35;8.40;98.30
9223;DHT22;7557;51.698;3.942;2023-03-01T12:30:19;8.60;99.00
9223;DHT22;7557;51.698;3.942;2023-03-01T12:33:00;8.90;97.10
9223;DHT22;7557;51.698;3.942;2023-03-01T12:35:39;8.90;97.20
9223;DHT22;7557;51.698;3.942;2023-03-01T12:38:20;8.70;97.20
9223;DHT22;7557;51.698;3.942;2023-03-01T12:41:11;8.60;97.90
9223;DHT22;7557;51.698;3.942;2023-03-01T12:43:51;8.50;97.90
9223;DHT22;7557;51.698;3.942;2023-03-01T12:46:32;8.50;98.10
9223;DHT22;7557;51.698;3.942;2023-03-01T12:49:08;8.60;98.00
9223;DHT22;7557;51.698;3.942;2023-03-01T12:51:38;8.70;98.40
9223;DHT22;7557;51.698;3.942;2023-03-01T12:54:14;8.80;98.60
9223;DHT22;7557;51.698;3.942;2023-03-01T12:56:42;8.80;97.90
9223;DHT22;7557;51.698;3.942;2023-03-01T12:59:24;8.80;98.40
9223;DHT22;7557;51.698;3.942;2023-03-01T13:01:56;8.80;98.30
9223;DHT22;7557;51.698;3.942;2023-03-01T13:04:34;8.80;98.50
9223;DHT22;7557;51.698;3.942;2023-03-01T13:07:14;8.90;98.00
9223;DHT22;7557;51.698;3.942;2023-03-01T13:09:51;8.80;97.90
9223;DHT22;7557;51.698;3.942;2023-03-01T13:12:43;8.80;98.70
9223;DHT22;7557;51.698;3.942;2023-03-01T13:15:35;9.00;98.60
9223;DHT22;7557;51.698;3.942;2023-03-01T13:18:04;9.00;98.50
9223;DHT22;7557;51.698;3.942;2023-03-01T13:20:52;8.90;98.40
9223;DHT22;7557;51.698;3.942;2023-03-01T13:23:29;8.80;98.60
9223;DHT22;7557;51.698;3.942;2023-03-01T13:26:14;8.80;98.60
9223;DHT22;7557;51.698;3.942;2023-03-01T13:28:52;8.80;97.90
9223;DHT22;7557;51.698;3.942;2023-03-01T13:34:50;8.80;97.90
9223;DHT22;7557;51.698;3.942;2023-03-01T13:37:29;8.80;97.70
9223;DHT22;7557;51.698;3.942;2023-03-01T13:39:59;8.70;98.00
9223;DHT22;7557;51.698;3.942;2023-03-01T13:42:39;8.70;98.80
9223;DHT22;7557;51.698;3.942;2023-03-01T13:45:22;8.80;99.00
9223;DHT22;7557;51.698;3.942;2023-03-01T13:47:55;8.80;99.00
9223;DHT22;7557;51.698;3.942;2023-03-01T13:50:28;8.70;98.90
9223;DHT22;7557;51.698;3.942;2023-03-01T13:52:57;8.80;99.40
9223;DHT22;7557;51.698;3.942;2023-03-01T13:55:31;8.80;99.00
9223;DHT22;7557;51.698;3.942;2023-03-01T13:58:05;8.70;98.90
9223;DHT22;7557;51.698;3.942;2023-03-01T14:00:41;8.70;98.90
9223;DHT22;7557;51.698;3.942;2023-03-01T14:03:13;8.70;98.70
9223;DHT22;7557;51.698;3.942;2023-03-01T14:05:43;8.70;98.80
9223;DHT22;7557;51.698;3.942;2023-03-01T14:08:24;8.70;99.00
9223;DHT22;7557;51.698;3.942;2023-03-01T14:13:55;8.60;98.30
9223;DHT22;7557;51.698;3.942;2023-03-01T14:16:34;8.60;98.70
9223;DHT22;7557;51.698;3.942;2023-03-01T14:19:14;8.70;98.30
9223;DHT22;7557;51.698;3.942;2023-03-01T14:21:45;8.70;98.20
9223;DHT22;7557;51.698;3.942;2023-03-01T14:24:18;8.70;98.10
9223;DHT22;7557;51.698;3.942;2023-03-01T14:26:46;8.70;98.30
9223;DHT22;7557;51.698;3.942;2023-03-01T14:29:29;8.60;98.30
9223;DHT22;7557;51.698;3.942;2023-03-01T14:32:12;8.60;97.90
9223;DHT22;7557;51.698;3.942;2023-03-01T14:34:45;8.60;98.00
9223;DHT22;7557;51.698;3.942;2023-03-01T14:37:20;8.50;98.00
9223;DHT22;7557;51.698;3.942;2023-03-01T14:39:48;8.50;98.10
9223;DHT22;7557;51.698;3.942;2023-03-01T14:42:16;8.50;97.90
9223;DHT22;7557;51.698;3.942;2023-03-01T14:44:46;8.50;97.60
9223;DHT22;7557;51.698;3.942;2023-03-01T14:47:18;8.50;97.70
9223;DHT22;7557;51.698;3.942;2023-03-01T14:49:50;8.50;97.50
9223;DHT22;7557;51.698;3.942;2023-03-01T14:52:25;8.60;97.90
9223;DHT22;7557;51.698;3.942;2023-03-01T14:54:54;8.60;97.60
9223;DHT22;7557;51.698;3.942;2023-03-01T14:57:23;8.60;98.00
9223;DHT22;7557;51.698;3.942;2023-03-01T14:59:51;8.60;97.70
9223;DHT22;7557;51.698;3.942;2023-03-01T15:02:23;8.50;97.90
9223;DHT22;7557;51.698;3.942;2023-03-01T15:04:52;8.50;98.00
9223;DHT22;7557;51.698;3.942;2023-03-01T15:07:26;8.40;98.20
9223;DHT22;7557;51.698;3.942;2023-03-01T15:09:53;8.50;98.00
9223;DHT22;7557;51.698;3.942;2023-03-01T15:12:38;8.50;97.90
9223;DHT22;7557;51.698;3.942;2023-03-01T15:15:31;8.40;97.80
9223;DHT22;7557;51.698;3.942;2023-03-01T15:18:00;8.30;97.70
9223;DHT22;7557;51.698;3.942;2023-03-01T15:20:29;8.30;98.20
9223;DHT22;7557;51.698;3.942;2023-03-01T15:23:03;8.30;98.20
9223;DHT22;7557;51.698;3.942;2023-03-01T15:25:31;8.30;98.40
9223;DHT22;7557;51.698;3.942;2023-03-01T15:28:00;8.30;97.90
9223;DHT22;7557;51.698;3.942;2023-03-01T15:30:30;8.30;98.00
9223;DHT22;7557;51.698;3.942;2023-03-01T15:33:27;8.30;97.80
9223;DHT22;7557;51.698;3.942;2023-03-01T15:35:56;8.30;97.80
9223;DHT22;7557;51.698;3.942;2023-03-01T15:38:36;8.30;98.40
9223;DHT22;7557;51.698;3.942;2023-03-01T15:41:24;8.30;98.40
9223;DHT22;7557;51.698;3.942;2023-03-01T15:43:51;8.20;98.90
9223;DHT22;7557;51.698;3.942;2023-03-01T15:46:25;8.20;98.90
9223;DHT22;7557;51.698;3.942;2023-03-01T15:48:54;8.30;98.30
9223;DHT22;7557;51.698;3.942;2023-03-01T15:51:30;8.30;98.30
9223;DHT22;7557;51.698;3.942;2023-03-01T15:54:01;8.30;98.00
9223;DHT22;7557;51.698;3.942;2023-03-01T15:56:28;8.30;97.80
9223;DHT22;7557;51.698;3.942;2023-03-01T15:58:59;8.20;98.20
9223;DHT22;7557;51.698;3.942;2023-03-01T16:01:27;8.20;98.90
9223;DHT22;7557;51.698;3.942;2023-03-01T16:03:54;8.20;99.00
9223;DHT22;7557;51.698;3.942;2023-03-01T16:06:24;8.20;98.30
9223;DHT22;7557;51.698;3.942;2023-03-01T16:08:51;8.20;98.70
9223;DHT22;7557;51.698;3.942;2023-03-01T16:11:20;8.10;99.00
9223;DHT22;7557;51.698;3.942;2023-03-01T16:13:47;8.10;99.20
9223;DHT22;7557;51.698;3.942;2023-03-01T16:16:16;8.10;98.90
9223;DHT22;7557;51.698;3.942;2023-03-01T16:18:45;8.10;99.00
9223;DHT22;7557;51.698;3.942;2023-03-01T16:21:18;8.10;99.60
9223;DHT22;7557;51.698;3.942;2023-03-01T16:23:46;8.10;99.90
9223;DHT22;7557;51.698;3.942;2023-03-01T16:26:14;8.00;99.90
9223;DHT22;7557;51.698;3.942;2023-03-01T16:28:43;8.00;99.80
9223;DHT22;7557;51.698;3.942;2023-03-01T16:31:10;7.90;99.90
9223;DHT22;7557;51.698;3.942;2023-03-01T16:33:38;7.80;99.90
9223;DHT22;7557;51.698;3.942;2023-03-01T16:36:10;7.80;99.90
9223;DHT22;7557;51.698;3.942;2023-03-01T16:38:38;7.70;99.90
9223;DHT22;7557;51.698;3.942;2023-03-01T16:41:05;7.70;99.90
9223;DHT22;7557;51.698;3.942;2023-03-01T16:43:37;7.70;99.90
9223;DHT22;7557;51.698;3.942;2023-03-01T16:46:11;7.70;99.90
9223;DHT22;7557;51.698;3.942;2023-03-01T16:48:38;7.70;99.90
9223;DHT22;7557;51.698;3.942;2023-03-01T16:51:06;7.60;99.90
9223;DHT22;7557;51.698;3.942;2023-03-01T16:53:34;7.50;99.90
9223;DHT22;7557;51.698;3.942;2023-03-01T16:56:03;7.40;99.90
9223;DHT22;7557;51.698;3.942;2023-03-01T16:58:30;7.40;99.90